Time;durP1;ratioP1;P1;durP2;ratioP2;P2;SDS_P1;SDS_P2;PMS_P1;PMS_P2;Temp;Humidity;BMP_temperature;BMP_pressure;BME280_temperature;BME280_humidity;BME280_pressure;Samples;Min_cycle;Max_cycle;Signal;HPM_P1;HPM_P2
2021/05/22 00:00:46;;;;;;;1.58;0.90;;;14.30;83.50;;;;;;5004152;28;20042;-86
2021/05/22 00:03:12;;;;;;;1.38;0.80;;;14.20;83.30;;;;;;5019146;28;20042;-84
2021/05/22 00:05:38;;;;;;;1.95;0.90;;;14.30;83.10;;;;;;5003836;28;20030;-85
2021/05/22 00:08:04;;;;;;;2.17;0.60;;;14.30;83.20;;;;;;5006349;28;20042;-84
2021/05/22 00:10:30;;;;;;;1.83;0.70;;;14.20;83.00;;;;;;5027979;28;20109;-86
2021/05/22 00:12:56;;;;;;;1.25;0.90;;;14.20;83.30;;;;;;5004988;28;20050;-84
2021/05/22 00:15:22;;;;;;;1.15;0.82;;;14.20;83.40;;;;;;5023740;28;20037;-84
2021/05/22 00:17:47;;;;;;;1.00;0.63;;;14.20;83.40;;;;;;5023791;28;20053;-84
2021/05/22 00:20:14;;;;;;;2.75;1.02;;;14.20;83.40;;;;;;5001321;28;20062;-84
2021/05/22 00:22:43;;;;;;;1.65;0.80;;;14.20;83.90;;;;;;5021068;28;20038;-85
2021/05/22 00:25:09;;;;;;;2.20;0.65;;;14.20;83.70;;;;;;5007402;28;20044;-84
2021/05/22 00:27:35;;;;;;;4.03;0.90;;;14.20;83.60;;;;;;5012035;28;20052;-83
2021/05/22 00:30:01;;;;;;;1.20;0.70;;;14.20;84.30;;;;;;5011101;28;20038;-85
2021/05/22 00:32:27;;;;;;;1.70;0.80;;;14.20;83.80;;;;;;5007541;28;20038;-84
2021/05/22 00:34:52;;;;;;;1.10;0.80;;;14.20;83.70;;;;;;5016232;28;20037;-84
2021/05/22 00:37:18;;;;;;;2.45;0.93;;;14.20;83.80;;;;;;5009440;28;20149;-85
2021/05/22 00:39:43;;;;;;;3.90;0.98;;;14.30;83.80;;;;;;5005044;28;20045;-85
2021/05/22 00:42:09;;;;;;;2.95;0.98;;;14.20;83.60;;;;;;5000601;28;20468;-85
2021/05/22 00:44:55;;;;;;;2.60;1.25;;;14.30;83.90;;;;;;4999767;28;20045;-85
2021/05/22 00:47:20;;;;;;;2.65;0.75;;;14.20;84.10;;;;;;4998681;28;20046;-86
2021/05/22 00:49:46;;;;;;;2.38;0.98;;;14.20;83.50;;;;;;5005189;28;20053;-86
2021/05/22 00:52:11;;;;;;;3.47;0.70;;;14.30;83.60;;;;;;5012004;28;20423;-85
2021/05/22 00:54:37;;;;;;;1.52;0.50;;;14.30;83.50;;;;;;5026078;28;20062;-85
2021/05/22 00:57:03;;;;;;;3.10;1.00;;;14.20;83.40;;;;;;5004045;28;20042;-86
2021/05/22 00:59:28;;;;;;;1.10;0.90;;;14.20;83.30;;;;;;5009040;28;20050;-85
2021/05/22 01:01:53;;;;;;;5.18;1.30;;;14.20;83.70;;;;;;4998715;28;20440;-85
2021/05/22 01:04:19;;;;;;;1.92;1.20;;;14.20;83.90;;;;;;5023589;28;20042;-84
2021/05/22 01:06:45;;;;;;;2.30;0.88;;;14.10;84.00;;;;;;5013504;28;20524;-84
2021/05/22 01:09:16;;;;;;;1.00;0.52;;;14.10;84.20;;;;;;5007009;28;20042;-83
2021/05/22 01:11:43;;;;;;;2.22;1.00;;;14.10;84.10;;;;;;5011839;28;20184;-85
2021/05/22 01:14:16;;;;;;;1.45;0.60;;;14.10;83.80;;;;;;5010759;28;20042;-85
2021/05/22 01:16:43;;;;;;;1.88;0.80;;;14.10;84.30;;;;;;5014192;28;20128;-84
2021/05/22 01:19:25;;;;;;;3.10;1.10;;;14.00;84.20;;;;;;5018809;28;20033;-83
2021/05/22 01:21:52;;;;;;;1.43;0.87;;;14.00;84.40;;;;;;5004646;28;20042;-84
2021/05/22 01:24:22;;;;;;;2.40;0.85;;;14.00;84.40;;;;;;5016330;28;20112;-84
2021/05/22 01:26:49;;;;;;;0.93;0.50;;;14.00;84.10;;;;;;5007635;28;20321;-85
2021/05/22 01:29:16;;;;;;;2.13;0.80;;;13.90;84.20;;;;;;5018076;28;20049;-84
2021/05/22 01:31:42;;;;;;;1.30;0.73;;;14.00;84.20;;;;;;5011622;28;20050;-84
2021/05/22 01:34:08;;;;;;;1.08;0.70;;;13.90;84.10;;;;;;5002646;28;20373;-85
2021/05/22 01:36:34;;;;;;;0.77;0.63;;;13.90;84.10;;;;;;5002985;28;20121;-84
2021/05/22 01:39:00;;;;;;;1.05;0.68;;;13.90;84.30;;;;;;5018859;28;20133;-84
2021/05/22 01:41:26;;;;;;;1.50;1.00;;;13.90;84.50;;;;;;5011387;28;20117;-85
2021/05/22 01:43:56;;;;;;;3.13;0.75;;;13.80;84.30;;;;;;5013971;28;20113;-84
2021/05/22 01:46:24;;;;;;;1.02;0.77;;;13.80;84.70;;;;;;5014784;28;20038;-84
2021/05/22 01:48:50;;;;;;;0.85;0.52;;;13.80;84.90;;;;;;4998760;28;20045;-85
2021/05/22 01:51:19;;;;;;;1.70;0.80;;;13.80;84.70;;;;;;5008757;28;20037;-84
2021/05/22 01:53:46;;;;;;;2.10;0.98;;;13.70;84.90;;;;;;5009100;28;20037;-84
2021/05/22 01:56:13;;;;;;;1.75;0.80;;;13.70;84.90;;;;;;5008052;28;20054;-86
2021/05/22 01:58:39;;;;;;;1.17;0.65;;;13.70;85.10;;;;;;5018865;28;20066;-85
2021/05/22 02:01:05;;;;;;;1.85;0.80;;;13.70;85.20;;;;;;5009571;28;20088;-85
2021/05/22 02:03:36;;;;;;;1.58;0.80;;;13.70;85.10;;;;;;5004668;28;20644;-84
2021/05/22 02:06:16;;;;;;;4.28;1.15;;;13.60;85.30;;;;;;5018342;28;20042;-85
2021/05/22 02:08:44;;;;;;;1.05;0.82;;;13.60;85.50;;;;;;4999802;28;20031;-84
2021/05/22 02:11:11;;;;;;;1.73;0.70;;;13.50;86.00;;;;;;5008338;28;20038;-85
2021/05/22 02:13:39;;;;;;;1.13;0.70;;;13.50;86.00;;;;;;5010513;28;20040;-84
2021/05/22 02:16:06;;;;;;;1.92;0.60;;;13.50;86.10;;;;;;5017217;28;20049;-85
2021/05/22 02:18:34;;;;;;;1.60;0.60;;;13.60;85.60;;;;;;5008696;28;20034;-84
2021/05/22 02:21:02;;;;;;;1.50;0.85;;;13.50;85.70;;;;;;5006474;28;20037;-85
2021/05/22 02:23:29;;;;;;;1.85;0.63;;;13.50;85.80;;;;;;5011500;28;20539;-85
2021/05/22 02:25:57;;;;;;;1.00;0.75;;;13.60;85.40;;;;;;5004951;28;20665;-84
2021/05/22 02:28:26;;;;;;;0.60;0.50;;;13.60;85.70;;;;;;5001814;28;20398;-86
2021/05/22 02:30:52;;;;;;;1.58;0.90;;;13.60;85.20;;;;;;5002393;28;20142;-86
2021/05/22 02:33:19;;;;;;;0.45;0.35;;;13.60;85.60;;;;;;5005989;28;20067;-85
2021/05/22 02:35:46;;;;;;;1.55;0.85;;;13.60;85.50;;;;;;5007407;28;20033;-85
2021/05/22 02:38:28;;;;;;;0.77;0.63;;;13.60;85.30;;;;;;5003583;28;20073;-85
2021/05/22 02:41:00;;;;;;;0.93;0.70;;;13.60;86.10;;;;;;5009673;28;20430;-85
2021/05/22 02:43:27;;;;;;;1.88;0.80;;;13.50;85.30;;;;;;5013255;28;20288;-85
2021/05/22 02:45:55;;;;;;;2.00;0.80;;;13.50;85.40;;;;;;5010123;28;20034;-85
2021/05/22 02:48:20;;;;;;;1.15;0.70;;;13.50;85.50;;;;;;5029193;28;20038;-84
2021/05/22 02:50:48;;;;;;;1.33;0.65;;;13.50;85.70;;;;;;5021143;28;20303;-84
2021/05/22 02:53:17;;;;;;;1.35;0.50;;;13.50;85.80;;;;;;5002246;28;20073;-85
2021/05/22 02:55:44;;;;;;;0.57;0.43;;;13.50;85.90;;;;;;5007392;28;20033;-86
2021/05/22 02:58:11;;;;;;;1.30;0.80;;;13.50;85.70;;;;;;5008693;28;20157;-85
2021/05/22 03:00:36;;;;;;;5.80;1.17;;;13.40;86.10;;;;;;5003463;28;20048;-84
2021/05/22 03:03:03;;;;;;;0.93;0.55;;;13.40;86.00;;;;;;5006631;28;20528;-84
2021/05/22 03:05:30;;;;;;;1.35;0.45;;;13.40;86.20;;;;;;5006807;28;20349;-85
2021/05/22 03:07:55;;;;;;;2.13;0.93;;;13.40;86.00;;;;;;5018257;28;20057;-85
2021/05/22 03:10:22;;;;;;;2.38;0.70;;;13.50;86.00;;;;;;5016395;28;20309;-84
2021/05/22 03:12:48;;;;;;;0.82;0.70;;;13.40;86.20;;;;;;5013497;28;20057;-84
2021/05/22 03:15:13;;;;;;;1.10;0.60;;;13.30;86.20;;;;;;4997425;28;20038;-85
2021/05/22 03:17:39;;;;;;;3.42;0.90;;;13.30;86.40;;;;;;4999315;28;20041;-83
2021/05/22 03:20:06;;;;;;;1.52;0.60;;;13.20;86.80;;;;;;5007064;28;20041;-84
2021/05/22 03:22:32;;;;;;;0.70;0.60;;;13.10;86.90;;;;;;5012879;28;20472;-83
2021/05/22 03:24:58;;;;;;;2.25;0.60;;;13.20;87.10;;;;;;5018422;28;20093;-83
2021/05/22 03:27:24;;;;;;;1.58;0.60;;;13.20;87.00;;;;;;5013768;28;20042;-84
2021/05/22 03:29:49;;;;;;;0.95;0.50;;;13.10;86.90;;;;;;5011607;28;20041;-84
2021/05/22 03:32:15;;;;;;;1.48;0.55;;;13.10;87.00;;;;;;5009755;28;20121;-86
2021/05/22 03:34:41;;;;;;;1.10;0.50;;;13.10;87.50;;;;;;5014357;28;20475;-84
2021/05/22 03:37:06;;;;;;;1.15;0.60;;;13.10;87.00;;;;;;5010427;28;20077;-84
2021/05/22 03:39:32;;;;;;;1.38;0.60;;;13.20;87.20;;;;;;4998060;28;20394;-83
2021/05/22 03:41:58;;;;;;;1.45;0.47;;;13.20;87.00;;;;;;5002327;28;20107;-84
2021/05/22 03:44:23;;;;;;;1.30;0.50;;;13.20;87.50;;;;;;5006629;28;20084;-85
2021/05/22 03:46:51;;;;;;;0.70;0.50;;;13.20;86.80;;;;;;5017419;28;20322;-84
2021/05/22 03:49:17;;;;;;;0.80;0.50;;;13.20;86.50;;;;;;5014568;28;20501;-83
2021/05/22 03:51:42;;;;;;;0.70;0.70;;;13.30;86.80;;;;;;5002749;28;20120;-85
2021/05/22 03:54:08;;;;;;;0.55;0.50;;;13.30;87.00;;;;;;5004753;28;20398;-85
2021/05/22 03:56:33;;;;;;;1.92;0.50;;;13.30;87.10;;;;;;5014467;28;20062;-84
2021/05/22 03:58:59;;;;;;;1.50;0.63;;;13.40;86.50;;;;;;5016662;28;20125;-84
2021/05/22 04:01:24;;;;;;;0.60;0.52;;;13.50;85.10;;;;;;5012048;28;20030;-83
2021/05/22 04:03:50;;;;;;;2.42;0.60;;;13.40;84.80;;;;;;5020988;28;20099;-84
2021/05/22 04:06:16;;;;;;;0.95;0.40;;;13.40;84.90;;;;;;5004676;28;20046;-83
2021/05/22 04:08:41;;;;;;;1.27;0.60;;;13.40;85.30;;;;;;5004010;28;20041;-85
2021/05/22 04:11:07;;;;;;;3.60;0.68;;;13.40;85.00;;;;;;5006528;28;20049;-85
2021/05/22 04:13:33;;;;;;;0.85;0.47;;;13.40;84.70;;;;;;5000846;28;20035;-85
2021/05/22 04:15:59;;;;;;;4.30;1.30;;;13.40;84.10;;;;;;5005219;28;20042;-85
2021/05/22 04:18:24;;;;;;;1.15;0.50;;;13.50;84.50;;;;;;5023018;28;20464;-85
2021/05/22 04:20:50;;;;;;;0.40;0.40;;;13.50;83.40;;;;;;5001951;28;20038;-85
2021/05/22 04:23:16;;;;;;;0.85;0.40;;;13.50;82.80;;;;;;5002155;28;20177;-84
2021/05/22 04:25:42;;;;;;;1.33;1.02;;;13.40;82.70;;;;;;5009695;28;20030;-84
2021/05/22 04:28:07;;;;;;;0.98;0.50;;;13.40;83.80;;;;;;5007430;28;20398;-84
2021/05/22 04:30:33;;;;;;;1.63;0.40;;;13.40;83.70;;;;;;5013092;28;20049;-86
2021/05/22 04:33:01;;;;;;;1.67;1.08;;;13.40;83.40;;;;;;5006381;28;20356;-86
2021/05/22 04:35:27;;;;;;;2.47;0.93;;;13.20;83.60;;;;;;5010901;28;20132;-85
2021/05/22 04:37:59;;;;;;;0.93;0.50;;;13.20;83.90;;;;;;5012341;28;20096;-84
2021/05/22 04:40:24;;;;;;;0.70;0.30;;;13.10;84.00;;;;;;5013290;28;20052;-85
2021/05/22 04:42:50;;;;;;;0.50;0.38;;;13.10;84.90;;;;;;5008992;28;20125;-83
2021/05/22 04:45:16;;;;;;;0.85;0.30;;;13.10;84.80;;;;;;5012999;28;20088;-85
2021/05/22 04:47:42;;;;;;;0.90;0.57;;;13.00;86.30;;;;;;4998364;28;20046;-85
2021/05/22 04:50:09;;;;;;;0.88;0.40;;;13.00;86.50;;;;;;5015010;28;20044;-83
2021/05/22 04:52:37;;;;;;;2.00;0.40;;;13.00;86.60;;;;;;5009590;28;20041;-85
2021/05/22 04:55:03;;;;;;;3.97;0.70;;;12.90;85.50;;;;;;5013325;28;20041;-84
2021/05/22 04:57:28;;;;;;;2.53;0.50;;;12.90;85.70;;;;;;5010216;28;20055;-84
2021/05/22 04:59:54;;;;;;;0.47;0.40;;;12.80;85.40;;;;;;5006220;28;20052;-83
2021/05/22 05:02:19;;;;;;;3.50;0.40;;;12.90;85.40;;;;;;5007865;28;20042;-84
2021/05/22 05:04:51;;;;;;;2.42;0.50;;;12.80;85.20;;;;;;5013886;28;20050;-85
2021/05/22 05:07:17;;;;;;;0.77;0.50;;;12.80;85.10;;;;;;5010158;28;20050;-83
2021/05/22 05:09:43;;;;;;;1.50;0.63;;;12.70;85.10;;;;;;5010838;28;20049;-84
2021/05/22 05:12:09;;;;;;;1.98;0.47;;;12.80;85.80;;;;;;5009636;28;20038;-84
2021/05/22 05:14:35;;;;;;;0.65;0.45;;;12.80;85.80;;;;;;5005752;28;20087;-84
2021/05/22 05:17:02;;;;;;;3.33;0.70;;;12.70;85.80;;;;;;5016604;28;20688;-84
2021/05/22 05:19:28;;;;;;;2.30;0.65;;;12.70;86.10;;;;;;5011658;28;20037;-84
2021/05/22 05:21:55;;;;;;;0.93;0.60;;;12.70;86.10;;;;;;5002746;28;20050;-86
2021/05/22 05:24:21;;;;;;;1.88;0.47;;;12.70;86.00;;;;;;5001421;28;20034;-84
2021/05/22 05:26:46;;;;;;;2.03;1.00;;;12.70;86.40;;;;;;5003015;28;20612;-85
2021/05/22 05:29:12;;;;;;;1.25;0.68;;;12.80;86.60;;;;;;5007489;28;20057;-85
2021/05/22 05:31:38;;;;;;;3.78;0.60;;;12.90;86.80;;;;;;4999624;28;20115;-85
2021/05/22 05:34:04;;;;;;;1.55;0.68;;;12.90;86.70;;;;;;5003502;28;20042;-84
2021/05/22 05:36:30;;;;;;;4.68;0.55;;;12.90;84.90;;;;;;4997906;28;20057;-84
2021/05/22 05:38:56;;;;;;;1.85;0.60;;;12.90;85.20;;;;;;5002733;28;20046;-84
2021/05/22 05:41:21;;;;;;;0.88;0.60;;;13.00;85.90;;;;;;4989700;28;20054;-84
2021/05/22 05:43:47;;;;;;;3.63;0.60;;;13.00;84.20;;;;;;5006238;28;20322;-84
2021/05/22 05:46:13;;;;;;;1.77;0.65;;;13.00;84.60;;;;;;5015403;28;20045;-85
2021/05/22 05:48:38;;;;;;;1.00;0.80;;;13.00;84.40;;;;;;5012011;28;20038;-85
2021/05/22 05:51:04;;;;;;;1.80;0.50;;;13.00;83.80;;;;;;4998789;28;20038;-85
2021/05/22 05:53:30;;;;;;;1.63;0.60;;;12.90;83.90;;;;;;5012800;28;20038;-85
2021/05/22 05:55:55;;;;;;;2.15;0.95;;;13.00;83.90;;;;;;5015028;28;20129;-85
2021/05/22 05:58:21;;;;;;;0.73;0.40;;;13.00;82.90;;;;;;5001055;28;20109;-86
2021/05/22 06:00:47;;;;;;;1.40;0.65;;;13.00;82.90;;;;;;5010742;28;20044;-86
2021/05/22 06:03:13;;;;;;;1.63;0.60;;;13.10;82.90;;;;;;5025353;28;20402;-85
2021/05/22 06:05:38;;;;;;;0.52;0.40;;;13.00;82.70;;;;;;5011042;28;20097;-84
2021/05/22 06:08:12;;;;;;;2.22;0.43;;;13.10;82.60;;;;;;5013909;28;20052;-84
2021/05/22 06:10:44;;;;;;;2.17;0.75;;;13.10;83.00;;;;;;5007190;28;20329;-85
2021/05/22 06:13:10;;;;;;;0.50;0.40;;;13.20;81.90;;;;;;5001792;28;20102;-85
2021/05/22 06:15:36;;;;;;;0.70;0.47;;;13.30;82.30;;;;;;5006379;28;20509;-85
2021/05/22 06:18:01;;;;;;;0.85;0.50;;;13.40;80.70;;;;;;4999968;28;20053;-84
2021/05/22 06:20:28;;;;;;;1.17;0.40;;;13.50;79.90;;;;;;5006066;28;20402;-84
2021/05/22 06:22:53;;;;;;;2.10;0.77;;;13.50;79.40;;;;;;5006149;28;20045;-84
2021/05/22 06:25:19;;;;;;;2.05;0.63;;;13.40;79.70;;;;;;5000855;28;20034;-85
2021/05/22 06:27:44;;;;;;;1.65;0.50;;;13.50;79.90;;;;;;5018600;28;20077;-87
2021/05/22 06:30:10;;;;;;;3.25;0.73;;;13.50;79.70;;;;;;5009467;28;20409;-85
2021/05/22 06:32:37;;;;;;;1.10;0.45;;;13.50;80.20;;;;;;5021431;28;20045;-85
2021/05/22 06:35:03;;;;;;;1.58;0.45;;;13.50;79.40;;;;;;5023821;28;20046;-86
2021/05/22 06:37:29;;;;;;;1.42;0.63;;;13.50;79.30;;;;;;4996851;28;20042;-85
2021/05/22 06:39:54;;;;;;;2.75;0.63;;;13.50;79.40;;;;;;5023322;28;20049;-84
2021/05/22 06:42:20;;;;;;;0.65;0.30;;;13.50;79.80;;;;;;5010419;28;20147;-86
2021/05/22 06:44:54;;;;;;;3.13;0.55;;;13.50;79.40;;;;;;5003678;28;20053;-85
2021/05/22 06:47:20;;;;;;;2.92;0.60;;;13.50;78.40;;;;;;5010365;28;20046;-83
2021/05/22 06:49:46;;;;;;;1.27;0.63;;;13.50;79.10;;;;;;5003914;28;20100;-85
2021/05/22 06:52:11;;;;;;;0.73;0.50;;;13.60;79.90;;;;;;5010366;28;20069;-84
2021/05/22 06:54:38;;;;;;;1.92;0.63;;;13.70;79.80;;;;;;5003211;28;20398;-84
2021/05/22 06:57:03;;;;;;;2.85;0.82;;;13.80;79.10;;;;;;5004240;28;20049;-86
2021/05/22 06:59:29;;;;;;;2.38;0.57;;;13.90;79.20;;;;;;5013155;28;20125;-84
2021/05/22 07:01:54;;;;;;;5.35;1.27;;;14.00;79.10;;;;;;5004112;28;20042;-85
2021/05/22 07:04:20;;;;;;;2.45;0.60;;;14.10;78.00;;;;;;5009463;28;20046;-86
2021/05/22 07:06:45;;;;;;;2.28;0.60;;;14.20;78.70;;;;;;5014597;28;20045;-85
2021/05/22 07:09:11;;;;;;;0.82;0.55;;;14.30;78.20;;;;;;5016383;28;20033;-84
2021/05/22 07:11:36;;;;;;;1.02;0.52;;;14.40;78.10;;;;;;5021488;28;20053;-85
2021/05/22 07:14:03;;;;;;;1.95;0.40;;;14.50;77.80;;;;;;5024700;28;20130;-85
2021/05/22 07:16:28;;;;;;;3.15;0.70;;;14.60;78.30;;;;;;5015577;28;20041;-85
2021/05/22 07:18:54;;;;;;;1.55;0.47;;;14.70;77.90;;;;;;5015736;28;20302;-83
2021/05/22 07:21:19;;;;;;;1.65;0.50;;;14.90;76.30;;;;;;5019738;28;20143;-85
2021/05/22 07:23:45;;;;;;;1.30;0.88;;;15.10;76.50;;;;;;5014810;28;20066;-85
2021/05/22 07:26:11;;;;;;;2.60;0.77;;;15.20;75.40;;;;;;5001149;28;20113;-85
2021/05/22 07:28:36;;;;;;;1.25;0.50;;;15.30;76.20;;;;;;5000291;28;20038;-84
2021/05/22 07:31:02;;;;;;;1.10;0.60;;;15.30;75.30;;;;;;5000560;28;20034;-86
2021/05/22 07:33:29;;;;;;;1.27;0.50;;;15.20;75.00;;;;;;4999866;28;20041;-85
2021/05/22 07:35:55;;;;;;;4.13;0.63;;;15.20;75.20;;;;;;5008682;28;20033;-85
2021/05/22 07:38:21;;;;;;;1.25;0.45;;;15.20;74.90;;;;;;5020070;28;20100;-86
2021/05/22 07:40:47;;;;;;;0.95;0.45;;;15.20;75.30;;;;;;5009763;28;20101;-84
2021/05/22 07:43:14;;;;;;;1.17;0.40;;;15.30;74.20;;;;;;5002767;28;20039;-82
2021/05/22 07:45:41;;;;;;;2.22;0.50;;;15.30;72.30;;;;;;5009137;28;20136;-86
2021/05/22 07:48:06;;;;;;;1.45;0.40;;;15.30;71.40;;;;;;5004008;28;20039;-87
2021/05/22 07:50:32;;;;;;;1.00;0.40;;;15.30;72.10;;;;;;5010813;28;20053;-86
2021/05/22 07:52:58;;;;;;;1.98;0.47;;;15.40;71.00;;;;;;5028104;28;20049;-84
2021/05/22 07:55:24;;;;;;;1.35;0.43;;;15.40;71.10;;;;;;5011227;28;20049;-85
2021/05/22 07:57:49;;;;;;;0.95;0.40;;;15.50;71.70;;;;;;5007744;28;20039;-86
2021/05/22 08:00:18;;;;;;;1.63;0.73;;;15.60;70.50;;;;;;5010937;28;20731;-85
2021/05/22 08:02:47;;;;;;;0.80;0.50;;;15.60;69.00;;;;;;5009522;28;20045;-85
2021/05/22 08:05:13;;;;;;;4.20;1.02;;;15.80;70.20;;;;;;5001450;28;20045;-86
2021/05/22 08:07:39;;;;;;;2.50;0.32;;;15.80;68.70;;;;;;5000349;28;20045;-86
2021/05/22 08:10:06;;;;;;;2.38;0.50;;;15.80;68.20;;;;;;5000921;28;20046;-85
2021/05/22 08:12:32;;;;;;;0.85;0.50;;;15.80;68.90;;;;;;4999040;28;20042;-85
2021/05/22 08:14:57;;;;;;;1.83;0.43;;;15.90;70.10;;;;;;4999324;28;20048;-85
2021/05/22 08:17:23;;;;;;;2.63;0.40;;;15.90;68.20;;;;;;4999933;28;20046;-87
2021/05/22 08:19:49;;;;;;;1.08;0.30;;;16.00;70.60;;;;;;5020086;28;20053;-87
2021/05/22 08:22:15;;;;;;;0.85;0.40;;;16.10;69.20;;;;;;5019810;28;20412;-87
2021/05/22 08:24:40;;;;;;;1.48;0.50;;;16.20;68.90;;;;;;5019367;28;20111;-84
2021/05/22 08:27:07;;;;;;;2.92;0.50;;;16.10;69.00;;;;;;5024126;28;20046;-83
2021/05/22 08:29:32;;;;;;;1.88;0.57;;;16.10;68.70;;;;;;5028871;28;20041;-83
2021/05/22 08:31:58;;;;;;;2.72;0.50;;;16.10;68.80;;;;;;5007130;28;20104;-84
2021/05/22 08:34:26;;;;;;;1.73;0.57;;;16.10;67.90;;;;;;4999172;28;20053;-84
2021/05/22 08:36:52;;;;;;;0.93;0.65;;;16.20;66.20;;;;;;4999079;28;20100;-84
2021/05/22 08:39:17;;;;;;;10.82;1.05;;;16.30;66.90;;;;;;4998545;28;20133;-85
2021/05/22 08:41:44;;;;;;;1.73;0.70;;;16.30;65.80;;;;;;4998971;28;20038;-86
2021/05/22 08:44:13;;;;;;;1.10;0.45;;;16.40;66.50;;;;;;4998757;28;20038;-84
2021/05/22 08:46:38;;;;;;;1.65;0.63;;;16.50;66.00;;;;;;5003488;28;20042;-86
2021/05/22 08:49:06;;;;;;;5.45;0.60;;;16.50;65.50;;;;;;4999649;28;20046;-86
2021/05/22 08:51:32;;;;;;;1.55;0.40;;;16.50;64.40;;;;;;4999138;28;20093;-86
2021/05/22 08:53:57;;;;;;;1.27;0.55;;;16.50;65.10;;;;;;5014025;28;20226;-84
2021/05/22 08:56:23;;;;;;;2.45;0.80;;;16.40;65.40;;;;;;5000353;28;20480;-85
2021/05/22 08:58:50;;;;;;;0.80;0.50;;;16.30;68.60;;;;;;5016305;28;20043;-84
2021/05/22 09:01:15;;;;;;;2.50;0.40;;;16.20;67.00;;;;;;5001548;28;20048;-84
2021/05/22 09:03:44;;;;;;;3.08;0.50;;;16.40;65.50;;;;;;4999416;28;20038;-84
2021/05/22 09:06:10;;;;;;;1.42;0.70;;;16.40;64.40;;;;;;5003719;28;20034;-83
2021/05/22 09:08:35;;;;;;;1.35;0.45;;;16.50;64.90;;;;;;4998720;28;20038;-85
2021/05/22 09:11:04;;;;;;;1.50;0.52;;;16.40;65.00;;;;;;4999032;28;20030;-85
2021/05/22 09:13:31;;;;;;;1.45;0.47;;;16.30;64.40;;;;;;4997538;28;20042;-82
2021/05/22 09:16:04;;;;;;;4.55;0.57;;;16.20;65.20;;;;;;5013075;28;20410;-87
2021/05/22 09:18:40;;;;;;;2.33;0.60;;;16.30;65.10;;;;;;5017923;28;20441;-87
2021/05/22 09:21:09;;;;;;;1.65;0.50;;;16.30;63.20;;;;;;5012688;28;20039;-85
2021/05/22 09:23:36;;;;;;;0.98;0.55;;;16.40;66.40;;;;;;5008385;28;20342;-87
2021/05/22 09:26:14;;;;;;;5.60;0.60;;;16.50;64.30;;;;;;5007579;28;20330;-86
2021/05/22 09:28:46;;;;;;;4.13;0.55;;;16.50;62.40;;;;;;5018027;28;20042;-84
2021/05/22 09:31:19;;;;;;;0.95;0.35;;;16.50;62.90;;;;;;5027604;28;20052;-85
2021/05/22 09:33:45;;;;;;;2.65;0.77;;;16.40;62.10;;;;;;5019412;28;20397;-85
2021/05/22 09:36:13;;;;;;;2.65;0.60;;;16.30;62.80;;;;;;5017360;28;20042;-86
2021/05/22 09:38:50;;;;;;;1.55;0.73;;;16.40;61.50;;;;;;5017757;28;20066;-82
2021/05/22 09:41:18;;;;;;;2.55;0.50;;;16.50;61.20;;;;;;5004084;28;20034;-82
2021/05/22 09:44:15;;;;;;;2.03;0.70;;;16.80;64.80;;;;;;4996722;28;20037;-86
2021/05/22 09:46:44;;;;;;;0.50;0.40;;;17.00;59.50;;;;;;4997555;28;20046;-85
2021/05/22 09:49:11;;;;;;;1.85;0.47;;;17.10;58.70;;;;;;4999774;28;20137;-86
2021/05/22 09:52:00;;;;;;;1.73;0.40;;;17.00;60.90;;;;;;4998553;28;20042;-87
2021/05/22 09:54:50;;;;;;;4.22;0.55;;;17.00;61.70;;;;;;4997509;28;20044;-84
2021/05/22 09:57:18;;;;;;;1.75;0.50;;;16.90;63.40;;;;;;4993753;28;20049;-84
2021/05/22 10:00:16;;;;;;;1.05;0.40;;;16.90;63.10;;;;;;4999395;28;20030;-87
2021/05/22 10:02:42;;;;;;;3.08;0.50;;;17.00;61.60;;;;;;4997911;28;20042;-85
2021/05/22 10:05:15;;;;;;;3.30;1.13;;;17.20;64.40;;;;;;4997972;28;20315;-87
2021/05/22 10:07:41;;;;;;;0.85;0.57;;;17.50;58.20;;;;;;5000715;28;20080;-85
2021/05/22 10:10:07;;;;;;;2.22;0.60;;;17.60;57.30;;;;;;5010368;28;20047;-85
2021/05/22 10:12:36;;;;;;;2.33;0.50;;;17.70;58.40;;;;;;4998042;28;20344;-85
2021/05/22 10:15:02;;;;;;;0.82;0.55;;;17.60;57.50;;;;;;4996843;28;20159;-88
2021/05/22 10:17:27;;;;;;;2.47;0.50;;;17.70;59.20;;;;;;4997444;28;20038;-85
2021/05/22 10:19:56;;;;;;;2.00;0.60;;;17.60;55.50;;;;;;5001611;28;20034;-85
2021/05/22 10:22:22;;;;;;;1.55;0.52;;;17.60;55.00;;;;;;4996369;28;20125;-85
2021/05/22 10:24:48;;;;;;;3.72;0.43;;;17.50;55.70;;;;;;4995882;28;20133;-90
2021/05/22 10:27:13;;;;;;;5.15;0.68;;;17.50;55.30;;;;;;4996976;28;20046;-86
2021/05/22 10:29:39;;;;;;;2.47;0.50;;;17.40;56.70;;;;;;4997014;28;20104;-87
2021/05/22 10:32:05;;;;;;;3.30;0.55;;;17.20;55.70;;;;;;4996476;28;20042;-86
2021/05/22 10:34:37;;;;;;;4.57;0.90;;;17.10;57.10;;;;;;4998239;28;20054;-84
2021/05/22 10:37:03;;;;;;;2.03;1.23;;;17.10;57.10;;;;;;4997575;28;20469;-84
2021/05/22 10:39:43;;;;;;;1.10;0.50;;;16.90;57.90;;;;;;4997146;28;20382;-85
2021/05/22 10:42:18;;;;;;;2.17;0.50;;;16.90;57.50;;;;;;4996292;28;20271;-86
2021/05/22 10:44:44;;;;;;;2.65;0.77;;;16.80;58.20;;;;;;4997319;28;20045;-86
2021/05/22 10:47:16;;;;;;;1.95;0.40;;;16.70;59.80;;;;;;5028736;28;20038;-84
2021/05/22 10:49:59;;;;;;;4.28;1.20;;;16.70;59.40;;;;;;5013018;28;20126;-85
2021/05/22 10:52:26;;;;;;;2.22;0.40;;;16.60;60.20;;;;;;4997889;28;20061;-84
2021/05/22 10:55:10;;;;;;;3.83;0.50;;;16.50;60.70;;;;;;4998190;28;20034;-86
2021/05/22 10:57:42;;;;;;;2.08;0.60;;;16.40;59.90;;;;;;5014210;28;20294;-86
2021/05/22 11:00:13;;;;;;;1.23;0.55;;;16.40;61.10;;;;;;4995646;28;20077;-87
2021/05/22 11:02:41;;;;;;;1.90;0.75;;;16.40;61.20;;;;;;4996288;28;20369;-87
2021/05/22 11:05:26;;;;;;;3.42;0.40;;;16.50;62.40;;;;;;4997559;28;20034;-84
2021/05/22 11:08:04;;;;;;;2.88;0.90;;;16.60;60.30;;;;;;5010810;28;20293;-84
2021/05/22 11:10:51;;;;;;;2.70;0.30;;;16.60;58.90;;;;;;5015002;28;20092;-85
2021/05/22 11:13:23;;;;;;;4.32;0.57;;;16.50;59.00;;;;;;5015933;28;20041;-85
2021/05/22 11:15:55;;;;;;;0.98;0.50;;;16.40;59.70;;;;;;5016255;28;20042;-83
2021/05/22 11:18:23;;;;;;;4.67;0.80;;;16.40;59.30;;;;;;5015249;28;20045;-86
2021/05/22 11:21:15;;;;;;;1.90;0.40;;;16.50;61.60;;;;;;5011605;28;20269;-85
2021/05/22 11:23:59;;;;;;;4.20;0.45;;;16.80;61.10;;;;;;5019012;28;20041;-84
2021/05/22 11:26:45;;;;;;;2.42;0.40;;;17.20;59.70;;;;;;5018791;28;20141;-86
2021/05/22 11:29:10;;;;;;;0.93;0.30;;;17.20;60.60;;;;;;5015279;28;20410;-84
2021/05/22 11:31:36;;;;;;;3.17;0.55;;;17.40;59.80;;;;;;5015477;28;20103;-84
2021/05/22 11:34:20;;;;;;;1.17;0.47;;;17.60;59.50;;;;;;5010751;28;20038;-85
2021/05/22 11:37:11;;;;;;;1.90;0.38;;;17.90;60.60;;;;;;4995742;28;20366;-86
2021/05/22 11:39:41;;;;;;;2.00;0.50;;;18.10;58.20;;;;;;4995960;28;20133;-85
2021/05/22 11:42:29;;;;;;;3.47;0.82;;;18.10;58.40;;;;;;4995800;28;20042;-86
2021/05/22 11:44:57;;;;;;;1.27;0.50;;;18.10;59.40;;;;;;5002903;28;20144;-86
2021/05/22 11:47:28;;;;;;;1.77;0.65;;;18.20;57.80;;;;;;4996878;28;20101;-88
2021/05/22 11:49:54;;;;;;;1.13;0.57;;;18.30;58.20;;;;;;4996162;28;20049;-85
2021/05/22 11:52:30;;;;;;;1.75;0.70;;;18.40;57.80;;;;;;4996312;28;20281;-85
2021/05/22 11:55:01;;;;;;;1.60;0.35;;;18.60;59.30;;;;;;4996788;28;20035;-85
2021/05/22 11:57:26;;;;;;;0.65;0.30;;;18.80;57.20;;;;;;5003396;28;20061;-86
2021/05/22 11:59:52;;;;;;;0.70;0.40;;;18.70;56.30;;;;;;5019014;28;20034;-86
2021/05/22 12:02:38;;;;;;;1.95;0.40;;;18.60;58.00;;;;;;5017088;28;20040;-84
2021/05/22 12:05:07;;;;;;;1.00;0.30;;;18.60;58.00;;;;;;5011064;28;20048;-86
2021/05/22 12:07:49;;;;;;;2.88;0.50;;;18.60;57.00;;;;;;5014637;28;20066;-84
2021/05/22 12:10:15;;;;;;;2.13;0.70;;;18.60;57.40;;;;;;4999295;28;20035;-86
2021/05/22 12:12:41;;;;;;;2.90;0.77;;;18.40;57.30;;;;;;4999916;28;20473;-85
2021/05/22 12:15:07;;;;;;;0.98;0.40;;;18.20;58.50;;;;;;4999753;28;20042;-85
2021/05/22 12:17:45;;;;;;;0.95;0.40;;;18.00;58.20;;;;;;4999059;28;20045;-86
2021/05/22 12:20:11;;;;;;;3.05;0.95;;;17.90;58.70;;;;;;4999937;28;20034;-86
2021/05/22 12:22:36;;;;;;;1.40;0.70;;;17.80;60.10;;;;;;4999690;28;20038;-87
2021/05/22 12:25:03;;;;;;;5.55;0.40;;;17.70;58.90;;;;;;5001749;28;20038;-85
2021/05/22 12:27:29;;;;;;;0.60;0.30;;;17.60;59.70;;;;;;5019588;28;20037;-88
2021/05/22 12:29:55;;;;;;;3.38;1.25;;;17.50;60.70;;;;;;5001640;28;20044;-87
2021/05/22 12:32:21;;;;;;;1.35;0.43;;;17.60;62.00;;;;;;5003326;28;20141;-83
2021/05/22 12:34:56;;;;;;;2.35;0.50;;;17.80;61.60;;;;;;5030467;28;20033;-84
2021/05/22 12:37:22;;;;;;;0.93;0.20;;;18.00;59.00;;;;;;5027539;28;20048;-84
2021/05/22 12:39:50;;;;;;;2.40;0.30;;;18.30;57.20;;;;;;5024481;28;20048;-85
2021/05/22 12:42:18;;;;;;;0.63;0.30;;;18.50;58.10;;;;;;5014950;28;20125;-85
2021/05/22 12:44:46;;;;;;;2.83;0.68;;;18.60;57.60;;;;;;5000624;28;20061;-86
2021/05/22 12:47:13;;;;;;;0.75;0.30;;;18.60;59.20;;;;;;5000223;28;20038;-86
2021/05/22 12:49:49;;;;;;;0.90;0.30;;;18.70;58.80;;;;;;5001440;28;20038;-87
2021/05/22 12:52:14;;;;;;;2.78;0.40;;;18.70;57.10;;;;;;5002003;28;20038;-84